createdAt,value
2018-04-07T00:00:23.483Z,77.31
2018-04-07T00:02:51.418Z,77.21
2018-04-07T00:05:18.998Z,76.96
2018-04-07T00:07:46.582Z,76.68
2018-04-07T00:10:14.162Z,76.30
2018-04-07T00:12:41.742Z,76.92
2018-04-07T00:15:09.539Z,76.43
2018-04-07T00:17:37.135Z,76.72
2018-04-07T00:20:04.759Z,76.77
2018-04-07T00:22:32.407Z,76.27
2018-04-07T00:24:59.996Z,76.43
2018-04-07T00:27:27.582Z,76.44
2018-04-07T00:29:55.203Z,76.06
2018-04-07T00:32:22.810Z,76.37
2018-04-07T00:34:50.406Z,75.92
2018-04-07T00:37:18.027Z,76.44
2018-04-07T00:39:45.663Z,76.04
2018-04-07T00:42:13.274Z,76.09
2018-04-07T00:44:40.886Z,76.60
2018-04-07T00:47:08.475Z,76.06
2018-04-07T00:49:36.066Z,75.83
2018-04-07T00:52:03.651Z,75.95
2018-04-07T00:54:31.272Z,75.94
2018-04-07T00:56:58.929Z,75.93
2018-04-07T00:59:26.514Z,75.95
2018-04-07T01:01:54.104Z,75.48
2018-04-07T01:04:21.691Z,75.83
2018-04-07T01:06:49.302Z,76.24
2018-04-07T01:09:16.878Z,76.84
2018-04-07T01:11:44.468Z,75.84
2018-04-07T01:14:12.091Z,76.15
2018-04-07T01:16:39.663Z,76.96
2018-04-07T01:19:07.256Z,76.34
2018-04-07T01:21:34.855Z,76.53
2018-04-07T01:24:02.466Z,76.66
2018-04-07T01:26:30.070Z,76.61
2018-04-07T01:28:57.656Z,76.92
2018-04-07T01:31:25.271Z,77.14
2018-04-07T01:33:52.898Z,77.11
2018-04-07T01:36:20.494Z,77.52
2018-04-07T01:38:48.081Z,77.21
2018-04-07T01:41:15.710Z,77.05
2018-04-07T01:43:43.301Z,76.90
2018-04-07T01:46:10.916Z,76.54
2018-04-07T01:48:38.535Z,76.08
2018-04-07T01:51:06.116Z,75.83
2018-04-07T01:53:33.715Z,75.75
2018-04-07T01:56:01.303Z,75.71
2018-04-07T01:58:28.886Z,75.90
2018-04-07T02:00:56.457Z,75.07
2018-04-07T02:03:24.062Z,75.72
2018-04-07T02:05:51.686Z,75.15
2018-04-07T02:08:19.294Z,75.61
2018-04-07T02:10:46.906Z,75.32
2018-04-07T02:13:14.525Z,74.34
2018-04-07T02:15:42.133Z,75.21
2018-04-07T02:18:09.732Z,75.10
2018-04-07T02:20:37.311Z,74.97
2018-04-07T02:23:04.931Z,74.62
2018-04-07T02:25:32.550Z,75.02
2018-04-07T02:28:00.145Z,74.75
2018-04-07T02:30:27.755Z,74.87
2018-04-07T02:32:55.336Z,74.61
2018-04-07T02:35:22.918Z,74.97
2018-04-07T02:37:50.595Z,73.89
2018-04-07T02:40:18.180Z,73.89
2018-04-07T02:42:45.765Z,74.11
2018-04-07T02:45:13.430Z,73.72
2018-04-07T02:47:41.011Z,73.64
2018-04-07T02:50:08.587Z,72.98
2018-04-07T02:52:36.248Z,73.31
2018-04-07T02:55:03.860Z,72.90
2018-04-07T02:57:31.460Z,72.80
2018-04-07T02:59:59.040Z,72.60
2018-04-07T03:02:26.624Z,72.30
2018-04-07T03:04:54.222Z,71.96
2018-04-07T03:07:21.800Z,71.57
2018-04-07T03:09:49.434Z,72.27
2018-04-07T03:12:17.030Z,72.07
2018-04-07T03:14:44.631Z,71.95
2018-04-07T03:17:12.212Z,71.98
2018-04-07T03:19:39.811Z,72.20
2018-04-07T03:22:07.458Z,71.35
2018-04-07T03:24:35.091Z,72.26
2018-04-07T03:27:02.683Z,71.55
2018-04-07T03:29:30.262Z,72.43
2018-04-07T03:31:57.887Z,72.29
2018-04-07T03:34:25.482Z,71.98
2018-04-07T03:36:53.082Z,71.96
2018-04-07T03:39:20.702Z,71.97
2018-04-07T03:41:48.282Z,72.07
2018-04-07T03:44:15.875Z,71.89
2018-04-07T03:46:43.462Z,72.33
2018-04-07T03:49:11.115Z,72.26
2018-04-07T03:51:38.696Z,71.67
2018-04-07T03:54:06.296Z,71.85
2018-04-07T03:56:33.887Z,71.40
2018-04-07T03:59:01.511Z,71.87
2018-04-07T04:01:29.101Z,72.02
2018-04-07T04:03:56.750Z,71.65
2018-04-07T04:06:24.335Z,71.97
2018-04-07T04:08:51.922Z,71.50
2018-04-07T04:11:19.547Z,71.53
2018-04-07T04:13:47.138Z,71.86
2018-04-07T04:16:14.718Z,71.23
2018-04-07T04:18:42.341Z,70.96
2018-04-07T04:21:09.937Z,71.31
2018-04-07T04:23:37.523Z,71.35
2018-04-07T04:26:05.106Z,71.19
2018-04-07T04:28:32.691Z,71.12
2018-04-07T04:31:00.322Z,70.96
2018-04-07T04:33:27.950Z,70.92
2018-04-07T04:35:55.594Z,71.10
2018-04-07T04:38:23.206Z,70.49
2018-04-07T04:40:50.807Z,71.11
2018-04-07T04:43:18.406Z,70.36
2018-04-07T04:45:45.995Z,70.00
2018-04-07T04:48:13.634Z,70.30
2018-04-07T04:50:41.238Z,70.30
2018-04-07T04:53:08.822Z,70.34
2018-04-07T04:55:36.463Z,69.90
2018-04-07T04:58:04.068Z,69.49
2018-04-07T05:00:31.658Z,69.75
2018-04-07T05:02:59.356Z,69.65
2018-04-07T05:05:26.953Z,69.11
2018-04-07T05:07:54.534Z,69.16
2018-04-07T05:10:22.203Z,68.22
2018-04-07T05:12:49.827Z,69.41
2018-04-07T05:15:17.557Z,69.62
2018-04-07T05:17:45.174Z,69.17
2018-04-07T05:20:12.839Z,69.76
2018-04-07T05:22:40.458Z,69.09
2018-04-07T05:25:08.047Z,69.54
2018-04-07T05:27:35.714Z,70.02
2018-04-07T05:30:03.311Z,69.28
2018-04-07T05:32:31.517Z,69.01
2018-04-07T05:34:59.124Z,69.51
2018-04-07T05:37:26.726Z,69.60
2018-04-07T05:39:54.385Z,68.89
2018-04-07T05:42:22.059Z,69.30
2018-04-07T05:44:49.703Z,69.48
2018-04-07T05:47:17.330Z,69.09
2018-04-07T05:49:44.970Z,68.53
2018-04-07T05:52:12.588Z,67.81
2018-04-07T05:54:40.240Z,69.19
2018-04-07T05:57:07.843Z,68.81
2018-04-07T05:59:35.466Z,67.83
2018-04-07T06:02:03.071Z,68.15
2018-04-07T06:04:30.651Z,67.02
2018-04-07T06:06:58.243Z,67.03
2018-04-07T06:09:25.980Z,67.99
2018-04-07T06:11:53.566Z,65.81
2018-04-07T06:14:21.202Z,65.11
2018-04-07T06:16:48.839Z,64.55
2018-04-07T06:19:16.471Z,65.54
2018-04-07T06:21:44.086Z,64.40
2018-04-07T06:24:11.749Z,63.21
2018-04-07T06:26:39.352Z,63.00
2018-04-07T06:29:06.934Z,63.11
2018-04-07T06:31:34.539Z,62.91
2018-04-07T06:34:02.195Z,62.28
2018-04-07T06:36:29.826Z,62.78
2018-04-07T06:38:57.411Z,63.59
2018-04-07T06:41:25.042Z,62.79
2018-04-07T06:43:52.642Z,63.20
2018-04-07T06:46:20.279Z,62.01
2018-04-07T06:48:47.902Z,62.46
2018-04-07T06:51:15.499Z,62.37
2018-04-07T06:53:43.173Z,62.70
2018-04-07T06:56:10.772Z,64.06
2018-04-07T06:58:38.359Z,62.40
2018-04-07T07:01:05.974Z,63.41
2018-04-07T07:03:33.571Z,63.10
2018-04-07T07:06:01.191Z,62.79
2018-04-07T07:08:28.858Z,62.59
2018-04-07T07:10:56.454Z,61.28
2018-04-07T07:13:24.124Z,61.46
2018-04-07T07:15:51.791Z,60.26
2018-04-07T07:18:19.536Z,59.56
2018-04-07T07:20:47.142Z,59.74
2018-04-07T07:23:14.768Z,59.07
2018-04-07T07:25:42.437Z,59.30
2018-04-07T07:28:10.060Z,60.22
2018-04-07T07:30:37.648Z,58.25
2018-04-07T07:33:05.279Z,58.54
2018-04-07T07:35:32.874Z,55.98
2018-04-07T07:38:00.485Z,57.06
2018-04-07T07:40:28.075Z,54.48
2018-04-07T07:42:55.750Z,54.62
2018-04-07T07:45:23.347Z,54.04
2018-04-07T07:47:50.959Z,54.89
2018-04-07T07:50:18.603Z,54.94
2018-04-07T07:52:46.207Z,53.81
2018-04-07T07:55:13.894Z,53.09
2018-04-07T07:57:41.483Z,52.36
2018-04-07T08:00:09.072Z,51.68
2018-04-07T08:02:36.735Z,48.20
2018-04-07T08:05:04.352Z,48.70
2018-04-07T08:07:32.496Z,47.86
2018-04-07T08:10:00.118Z,47.37
2018-04-07T08:12:27.743Z,47.67
2018-04-07T08:14:55.374Z,48.64
2018-04-07T08:17:22.971Z,47.33
2018-04-07T08:19:50.571Z,48.56
2018-04-07T08:22:18.190Z,48.23
2018-04-07T08:24:45.818Z,46.29
2018-04-07T08:27:13.426Z,47.50
2018-04-07T08:29:41.046Z,47.28
2018-04-07T08:32:08.735Z,47.96
2018-04-07T08:34:36.403Z,50.11
2018-04-07T08:37:03.990Z,48.34
2018-04-07T08:39:31.663Z,48.83
2018-04-07T08:41:59.191Z,48.42
2018-04-07T08:44:26.819Z,49.13
2018-04-07T08:46:54.446Z,46.63
2018-04-07T08:49:22.055Z,46.56
2018-04-07T08:51:49.639Z,45.25
2018-04-07T08:54:17.279Z,47.52
2018-04-07T08:56:44.908Z,47.20
2018-04-07T08:59:12.578Z,45.91
2018-04-07T09:01:40.191Z,50.38
2018-04-07T09:04:07.793Z,48.42
2018-04-07T09:06:35.410Z,48.41
2018-04-07T09:09:03.047Z,47.08
2018-04-07T09:11:30.695Z,47.72
2018-04-07T09:13:58.290Z,43.77
2018-04-07T09:16:25.875Z,44.33
2018-04-07T09:18:53.502Z,44.41
2018-04-07T09:21:21.083Z,44.06
2018-04-07T09:23:48.683Z,42.64
2018-04-07T09:26:16.306Z,41.39
2018-04-07T09:28:43.894Z,41.46
2018-04-07T09:31:18.115Z,42.06
2018-04-07T09:33:45.750Z,41.42
2018-04-07T09:36:14.334Z,44.75
2018-04-07T09:38:41.924Z,44.28
2018-04-07T09:41:09.569Z,42.25
2018-04-07T09:43:37.172Z,39.05
2018-04-07T09:46:04.800Z,43.74
2018-04-07T09:48:32.483Z,42.45
2018-04-07T09:51:00.112Z,43.63
2018-04-07T09:53:27.698Z,40.17
2018-04-07T09:55:55.334Z,37.14
2018-04-07T09:58:22.943Z,38.12
2018-04-07T10:00:50.552Z,38.04
2018-04-07T10:03:22.051Z,35.98
2018-04-07T10:05:50.443Z,35.36
2018-04-07T10:08:18.032Z,34.59
2018-04-07T10:10:45.774Z,34.39
2018-04-07T10:13:13.380Z,35.43
2018-04-07T10:15:40.979Z,34.15
2018-04-07T10:18:08.579Z,31.94
2018-04-07T10:20:36.174Z,30.56
2018-04-07T10:23:03.799Z,31.36
2018-04-07T10:25:31.499Z,31.53
2018-04-07T10:27:59.139Z,30.93
2018-04-07T10:30:26.753Z,31.84
2018-04-07T10:32:55.307Z,29.08
2018-04-07T10:35:22.964Z,31.53
2018-04-07T10:37:50.603Z,32.41
2018-04-07T10:40:18.224Z,30.57
2018-04-07T10:42:45.928Z,29.38
2018-04-07T10:45:13.643Z,30.55
2018-04-07T10:47:41.275Z,27.19
2018-04-07T10:50:08.992Z,31.01
2018-04-07T10:52:36.635Z,31.05
2018-04-07T10:55:04.323Z,31.19
2018-04-07T10:57:32.031Z,32.10
2018-04-07T10:59:59.679Z,31.69
2018-04-07T11:02:27.319Z,33.18
2018-04-07T11:04:55.336Z,32.38
2018-04-07T11:07:22.927Z,31.46
2018-04-07T11:09:50.512Z,30.48
2018-04-07T11:12:18.112Z,30.64
2018-04-07T11:14:45.755Z,30.07
2018-04-07T11:17:13.362Z,30.68
2018-04-07T11:19:40.962Z,31.34
2018-04-07T11:22:08.603Z,31.66
2018-04-07T11:24:36.219Z,31.77
2018-04-07T11:27:03.836Z,30.24
2018-04-07T11:29:31.431Z,27.84
2018-04-07T11:31:59.016Z,28.53
2018-04-07T11:34:26.618Z,25.77
2018-04-07T11:36:55.827Z,25.65
2018-04-07T11:39:23.874Z,24.75
2018-04-07T11:41:51.475Z,21.49
2018-04-07T11:44:19.067Z,21.87
2018-04-07T11:46:46.663Z,20.49
2018-04-07T11:49:14.318Z,20.90
2018-04-07T11:51:41.910Z,21.19
2018-04-07T11:54:09.557Z,20.87
2018-04-07T11:56:37.131Z,21.03
2018-04-07T11:59:04.739Z,22.86
2018-04-07T12:01:32.421Z,23.54
2018-04-07T12:04:00.011Z,24.27
2018-04-07T12:06:27.594Z,22.62
2018-04-07T12:08:55.214Z,20.45
2018-04-07T12:11:22.806Z,21.87
2018-04-07T12:13:50.387Z,22.08
2018-04-07T12:16:18.127Z,23.39
2018-04-07T12:18:45.744Z,23.11
2018-04-07T12:21:13.399Z,21.03
2018-04-07T12:23:41.015Z,20.87
2018-04-07T12:26:08.704Z,19.78
2018-04-07T12:28:36.292Z,18.97
2018-04-07T12:31:03.899Z,19.60
2018-04-07T12:33:31.522Z,18.57
2018-04-07T12:35:59.108Z,19.04
2018-04-07T12:38:26.696Z,20.03
2018-04-07T12:40:54.414Z,20.32
2018-04-07T12:43:22.007Z,20.72
2018-04-07T12:45:49.636Z,19.29
2018-04-07T12:48:17.252Z,18.89
2018-04-07T12:50:45.591Z,21.47
2018-04-07T12:53:13.183Z,19.75
2018-04-07T12:55:40.862Z,19.26
2018-04-07T12:58:08.480Z,20.44
2018-04-07T13:00:36.076Z,20.47
2018-04-07T13:03:03.654Z,20.51
2018-04-07T13:05:31.259Z,20.20
2018-04-07T13:07:58.896Z,20.18
2018-04-07T13:10:26.586Z,21.02
2018-04-07T13:12:54.167Z,22.46
2018-04-07T13:15:21.787Z,20.80
2018-04-07T13:17:49.374Z,19.30
2018-04-07T13:20:16.963Z,21.05
2018-04-07T13:22:44.571Z,18.36
2018-04-07T13:25:12.248Z,19.84
2018-04-07T13:27:39.874Z,21.11
2018-04-07T13:30:07.467Z,22.14
2018-04-07T13:32:35.103Z,22.19
2018-04-07T13:35:02.698Z,22.58
2018-04-07T13:37:30.290Z,22.62
2018-04-07T13:39:57.921Z,24.50
2018-04-07T13:42:25.542Z,24.67
2018-04-07T13:44:53.124Z,25.78
2018-04-07T13:47:20.796Z,25.74
2018-04-07T13:49:48.390Z,25.32
2018-04-07T13:52:15.971Z,25.29
2018-04-07T13:54:43.575Z,25.93
2018-04-07T13:57:11.211Z,25.83
2018-04-07T13:59:38.796Z,25.81
2018-04-07T14:02:06.402Z,27.42
2018-04-07T14:04:34.034Z,28.40
2018-04-07T14:07:01.699Z,27.71
2018-04-07T14:09:29.319Z,26.85
2018-04-07T14:11:56.939Z,26.25
2018-04-07T14:14:24.568Z,27.53
2018-04-07T14:16:52.176Z,25.69
2018-04-07T14:19:19.819Z,26.97
2018-04-07T14:21:47.451Z,26.95
2018-04-07T14:24:15.036Z,27.17
2018-04-07T14:26:42.618Z,26.83
2018-04-07T14:29:10.203Z,28.10
2018-04-07T14:31:37.823Z,27.66
2018-04-07T14:34:05.474Z,27.74
2018-04-07T14:36:33.068Z,27.58
2018-04-07T14:39:00.650Z,26.78
2018-04-07T14:41:28.327Z,27.52
2018-04-07T14:43:55.921Z,28.03
2018-04-07T14:46:23.535Z,27.20
2018-04-07T14:48:51.231Z,29.44
2018-04-07T14:51:18.806Z,26.80
2018-04-07T14:53:46.390Z,26.78
2018-04-07T14:56:14.028Z,25.03
2018-04-07T14:58:42.482Z,24.92
2018-04-07T15:01:10.083Z,25.17
2018-04-07T15:03:37.711Z,26.05
2018-04-07T15:06:05.297Z,27.48
2018-04-07T15:08:32.890Z,27.05
2018-04-07T15:11:00.503Z,27.88
2018-04-07T15:13:28.163Z,28.05
2018-04-07T15:15:55.714Z,27.60
2018-04-07T15:18:23.318Z,28.10
2018-04-07T15:20:50.940Z,28.76
2018-04-07T15:23:18.530Z,28.99
2018-04-07T15:25:46.119Z,27.89
2018-04-07T15:28:13.702Z,27.73
2018-04-07T15:30:41.282Z,27.29
2018-04-07T15:33:08.874Z,25.69
2018-04-07T15:35:36.463Z,23.80
2018-04-07T15:38:04.094Z,23.72
2018-04-07T15:40:31.699Z,25.35
2018-04-07T15:42:59.335Z,26.76
2018-04-07T15:45:26.915Z,27.90
2018-04-07T15:47:54.494Z,29.10
2018-04-07T15:50:22.084Z,30.18
2018-04-07T15:52:49.715Z,28.79
2018-04-07T15:55:17.303Z,29.19
2018-04-07T15:57:44.899Z,29.57
2018-04-07T16:00:12.510Z,29.64
2018-04-07T16:02:40.103Z,29.82
2018-04-07T16:05:07.741Z,30.21
2018-04-07T16:07:35.430Z,30.81
2018-04-07T16:10:03.066Z,30.61
2018-04-07T16:12:30.694Z,31.11
2018-04-07T16:14:58.314Z,31.42
2018-04-07T16:17:25.957Z,31.55
2018-04-07T16:19:53.546Z,32.74
2018-04-07T16:22:21.144Z,33.37
2018-04-07T16:24:48.734Z,32.67
2018-04-07T16:27:16.362Z,32.63
2018-04-07T16:29:44.052Z,33.83
2018-04-07T16:32:11.640Z,32.23
2018-04-07T16:34:39.227Z,33.06
2018-04-07T16:37:06.835Z,32.89
2018-04-07T16:39:34.511Z,33.75
2018-04-07T16:42:02.207Z,34.52
2018-04-07T16:44:32.743Z,33.96
2018-04-07T16:47:00.466Z,34.54
2018-04-07T16:49:28.119Z,34.67
2018-04-07T16:51:55.715Z,34.86
2018-04-07T16:54:23.338Z,34.82
2018-04-07T16:56:50.944Z,35.32
2018-04-07T16:59:18.567Z,34.64
2018-04-07T17:01:46.200Z,35.05
2018-04-07T17:04:13.786Z,35.24
2018-04-07T17:06:41.375Z,35.66
2018-04-07T17:09:10.069Z,35.94
2018-04-07T17:11:37.723Z,36.05
2018-04-07T17:14:05.319Z,36.41
2018-04-07T17:16:32.938Z,36.65
2018-04-07T17:19:00.528Z,37.04
2018-04-07T17:21:28.126Z,37.21
2018-04-07T17:23:55.767Z,37.59
2018-04-07T17:26:23.377Z,37.56
2018-04-07T17:28:51.000Z,38.41
2018-04-07T17:31:18.623Z,37.68
2018-04-07T17:33:46.231Z,38.42
2018-04-07T17:36:13.880Z,38.20
2018-04-07T17:38:41.567Z,38.76
2018-04-07T17:41:09.163Z,39.50
2018-04-07T17:43:36.774Z,39.66
2018-04-07T17:46:04.376Z,39.72
2018-04-07T17:48:32.019Z,38.70
2018-04-07T17:50:59.619Z,39.74
2018-04-07T17:53:27.218Z,40.08
2018-04-07T17:55:54.931Z,39.15
2018-04-07T17:58:22.527Z,40.26
2018-04-07T18:00:50.115Z,40.63
2018-04-07T18:03:17.711Z,40.92
2018-04-07T18:05:45.297Z,40.72
2018-04-07T18:08:12.920Z,40.88
2018-04-07T18:10:40.533Z,40.81
2018-04-07T18:13:08.158Z,41.25
2018-04-07T18:15:35.786Z,41.57
2018-04-07T18:18:03.390Z,41.69
2018-04-07T18:20:30.976Z,42.05
2018-04-07T18:22:58.563Z,41.71
2018-04-07T18:25:26.148Z,42.78
2018-04-07T18:27:53.779Z,42.95
2018-04-07T18:30:21.378Z,44.11
2018-04-07T18:32:49.006Z,43.71
2018-04-07T18:35:16.602Z,43.74
2018-04-07T18:37:44.198Z,43.60
2018-04-07T18:40:11.831Z,42.90
2018-04-07T18:42:39.475Z,42.04
2018-04-07T18:45:07.058Z,42.54
2018-04-07T18:47:34.698Z,41.67
2018-04-07T18:50:02.291Z,42.60
2018-04-07T18:52:29.899Z,42.54
2018-04-07T18:54:57.526Z,41.50
2018-04-07T18:57:25.140Z,42.17
2018-04-07T18:59:52.759Z,42.08
2018-04-07T19:02:20.347Z,42.81
2018-04-07T19:04:47.999Z,42.50
2018-04-07T19:07:15.643Z,43.18
2018-04-07T19:09:43.318Z,43.48
2018-04-07T19:12:10.907Z,43.73
2018-04-07T19:14:38.499Z,45.04
2018-04-07T19:17:06.167Z,44.94
2018-04-07T19:19:33.795Z,45.94
2018-04-07T19:22:01.379Z,45.73
2018-04-07T19:24:29.007Z,44.77
2018-04-07T19:26:56.594Z,45.91
2018-04-07T19:29:24.247Z,46.08
2018-04-07T19:31:51.842Z,46.07
2018-04-07T19:34:19.450Z,45.93
2018-04-07T19:36:47.082Z,47.27
2018-04-07T19:39:14.679Z,47.21
2018-04-07T19:41:42.303Z,46.11
2018-04-07T19:44:09.895Z,45.11
2018-04-07T19:46:37.483Z,46.57
2018-04-07T19:49:05.083Z,45.53
2018-04-07T19:51:32.727Z,47.50
2018-04-07T19:54:00.408Z,47.16
2018-04-07T19:56:28.006Z,47.02
2018-04-07T19:58:55.607Z,47.27
2018-04-07T20:01:23.208Z,48.01
2018-04-07T20:03:50.827Z,45.56
2018-04-07T20:06:18.451Z,46.14
2018-04-07T20:08:46.044Z,45.42
2018-04-07T20:11:13.636Z,45.52
2018-04-07T20:13:41.241Z,46.92
2018-04-07T20:16:08.898Z,46.41
2018-04-07T20:18:36.522Z,47.64
2018-04-07T20:21:04.202Z,47.55
2018-04-07T20:23:31.790Z,47.28
2018-04-07T20:25:59.502Z,48.20
2018-04-07T20:28:27.083Z,48.26
2018-04-07T20:30:54.731Z,49.05
2018-04-07T20:33:22.318Z,49.28
2018-04-07T20:35:49.906Z,49.11
2018-04-07T20:38:17.571Z,49.35
2018-04-07T20:40:56.130Z,49.40
2018-04-07T20:43:25.611Z,49.36
2018-04-07T20:45:53.258Z,49.55
2018-04-07T20:48:20.854Z,49.98
2018-04-07T20:50:48.459Z,50.59
2018-04-07T20:53:16.051Z,50.73
2018-04-07T20:55:43.678Z,49.87
2018-04-07T20:58:11.325Z,50.79
2018-04-07T21:00:38.957Z,50.92
2018-04-07T21:03:06.627Z,50.94
2018-04-07T21:05:34.227Z,51.15
2018-04-07T21:08:01.875Z,51.75
2018-04-07T21:10:29.510Z,52.05
2018-04-07T21:12:57.112Z,51.86
2018-04-07T21:15:24.743Z,51.77
2018-04-07T21:17:52.395Z,51.36
2018-04-07T21:20:19.982Z,51.35
2018-04-07T21:22:47.622Z,51.47
2018-04-07T21:25:15.231Z,52.10
2018-04-07T21:27:42.843Z,52.17
2018-04-07T21:30:10.446Z,51.56
2018-04-07T21:32:38.041Z,51.76
2018-04-07T21:35:05.661Z,52.44
2018-04-07T21:37:33.318Z,52.27
2018-04-07T21:40:00.951Z,52.45
2018-04-07T21:42:28.566Z,52.51
2018-04-07T21:44:56.151Z,52.51
2018-04-07T21:47:23.783Z,53.37
2018-04-07T21:49:51.399Z,53.39
2018-04-07T21:52:18.995Z,54.01
2018-04-07T21:54:46.658Z,54.35
2018-04-07T21:57:14.252Z,55.46
2018-04-07T21:59:41.863Z,55.09
2018-04-07T22:02:09.482Z,54.65
2018-04-07T22:04:37.128Z,54.65
2018-04-07T22:07:04.718Z,55.65
2018-04-07T22:09:32.318Z,56.32
2018-04-07T22:12:00.049Z,56.64
2018-04-07T22:14:27.639Z,57.04
2018-04-07T22:16:55.272Z,57.04
2018-04-07T22:19:22.934Z,57.25
2018-04-07T22:21:50.555Z,57.05
2018-04-07T22:24:18.190Z,57.87
2018-04-07T22:26:45.833Z,58.30
2018-04-07T22:29:13.515Z,58.92
2018-04-07T22:31:41.175Z,59.92
2018-04-07T22:34:08.775Z,59.32
2018-04-07T22:36:36.378Z,59.14
2018-04-07T22:39:04.079Z,57.93
2018-04-07T22:41:31.698Z,58.48
2018-04-07T22:43:59.289Z,60.08
2018-04-07T22:46:26.923Z,60.12
2018-04-07T22:48:54.514Z,60.66
2018-04-07T22:51:22.122Z,60.68
2018-04-07T22:53:49.781Z,60.87
2018-04-07T22:56:17.401Z,60.40
2018-04-07T22:58:44.998Z,60.61
2018-04-07T23:01:12.637Z,60.55
2018-04-07T23:03:40.252Z,60.66
2018-04-07T23:06:07.843Z,60.51
2018-04-07T23:08:35.463Z,60.90
2018-04-07T23:11:03.115Z,61.01
2018-04-07T23:13:30.815Z,61.56
2018-04-07T23:15:58.409Z,61.87
2018-04-07T23:18:26.568Z,62.93
2018-04-07T23:20:54.211Z,62.68
2018-04-07T23:23:21.839Z,62.44
2018-04-07T23:25:49.439Z,62.23
2018-04-07T23:28:17.038Z,62.99
2018-04-07T23:30:44.675Z,62.47
2018-04-07T23:33:12.298Z,63.19
2018-04-07T23:35:39.911Z,62.95
2018-04-07T23:38:07.602Z,62.87
2018-04-07T23:40:35.235Z,63.99
2018-04-07T23:43:02.835Z,63.92
2018-04-07T23:45:30.435Z,65.24
2018-04-07T23:47:58.043Z,65.42
2018-04-07T23:50:25.658Z,65.63
2018-04-07T23:52:53.269Z,65.70
2018-04-07T23:55:20.897Z,66.44
2018-04-07T23:57:48.483Z,67.82
